ADDS METAR Data INFO
IDs: Format: Raw Decoded Include TAF

Data at: 0039 UTC 21 Jan 2018

METAR for:KLOU (Louisville/Bowman Fl, KY, US)
Text:KLOU 202353Z 20009G18KT 10SM BKN020 BKN030 OVC036 10/07 A3014 RMK AO2 SLP207 T01000067 10106 20089 51010
Temperature: 10.0°C ( 50°F)
Dewpoint: 6.7°C ( 44°F) [RH = 80%]
Pressure (altimeter):30.14 inches Hg (1020.7 mb) [Sea level pressure: 1020.7 mb]
Winds:from the SSW (200 degrees) at 10 MPH (9 knots; 4.6 m/s) gusting to 21 MPH (18 knots; 9.3 m/s)
Visibility:10 or more sm (16+ km)
Ceiling:2000 feet AGL
Clouds: broken clouds at 2000 feet AGL, broken clouds at 3000 feet AGL, overcast cloud deck at 3600 feet AGL